createdAt,value
2019-05-23T00:02:09.619Z,8.60
2019-05-23T00:04:43.244Z,8.57
2019-05-23T00:07:16.390Z,8.55
2019-05-23T00:09:43.161Z,8.50
2019-05-23T00:12:29.509Z,8.43
2019-05-23T00:15:00.393Z,8.37
2019-05-23T00:20:18.033Z,8.29
2019-05-23T00:22:44.893Z,8.23
2019-05-23T00:25:14.082Z,8.25
2019-05-23T00:27:42.443Z,8.19
2019-05-23T00:30:12.304Z,8.16
2019-05-23T00:32:46.433Z,8.08
2019-05-23T00:35:14.419Z,8.08
2019-05-23T00:37:42.686Z,8.12
2019-05-23T00:40:11.998Z,8.11
2019-05-23T00:42:39.571Z,8.09
2019-05-23T00:45:07.074Z,8.11
2019-05-23T00:47:33.734Z,8.02
2019-05-23T00:50:01.515Z,7.92
2019-05-23T00:52:29.161Z,7.87
2019-05-23T00:54:57.540Z,7.82
2019-05-23T00:57:27.108Z,7.77
2019-05-23T00:59:54.388Z,7.68
2019-05-23T01:02:21.150Z,7.73
2019-05-23T01:04:48.638Z,7.52
2019-05-23T01:07:16.536Z,7.64
2019-05-23T01:09:43.572Z,7.59
2019-05-23T01:12:11.959Z,7.53
2019-05-23T01:14:38.618Z,7.50
2019-05-23T01:17:07.748Z,7.47
2019-05-23T01:19:34.824Z,7.42
2019-05-23T01:22:04.548Z,7.35
2019-05-23T01:24:34.611Z,7.33
2019-05-23T01:27:04.374Z,7.27
2019-05-23T01:29:38.868Z,7.22
2019-05-23T01:32:13.984Z,7.19
2019-05-23T01:34:41.532Z,7.21
2019-05-23T01:37:09.753Z,7.17
2019-05-23T01:39:37.126Z,7.24
2019-05-23T01:42:04.808Z,7.26
2019-05-23T01:44:32.086Z,7.27
2019-05-23T01:46:59.574Z,7.25
2019-05-23T01:49:26.534Z,7.25
2019-05-23T01:51:54.129Z,7.20
2019-05-23T01:54:21.222Z,7.23
2019-05-23T01:56:48.610Z,7.20
2019-05-23T01:59:15.916Z,7.17
2019-05-23T02:01:43.719Z,7.14
2019-05-23T02:04:10.899Z,7.09
2019-05-23T02:06:38.331Z,7.08
2019-05-23T02:09:07.224Z,7.34
2019-05-23T02:11:34.815Z,7.40
2019-05-23T02:14:03.524Z,7.20
2019-05-23T02:16:31.110Z,7.06
2019-05-23T02:18:57.978Z,6.97
2019-05-23T02:21:26.478Z,6.90
2019-05-23T02:23:53.659Z,6.80
2019-05-23T02:26:21.567Z,6.70
2019-05-23T02:28:48.459Z,6.66
2019-05-23T02:31:36.562Z,6.78
2019-05-23T02:34:04.670Z,6.80
2019-05-23T02:36:31.635Z,6.71
2019-05-23T02:39:16.770Z,6.65
2019-05-23T02:41:51.216Z,6.59
2019-05-23T02:44:20.739Z,6.47
2019-05-23T02:46:59.600Z,6.58
2019-05-23T02:49:30.275Z,6.59
2019-05-23T02:51:59.682Z,6.54
2019-05-23T02:54:29.679Z,6.45
2019-05-23T02:56:59.087Z,6.36
2019-05-23T02:59:55.448Z,6.32
2019-05-23T03:02:57.787Z,6.30
2019-05-23T03:05:25.679Z,6.31
2019-05-23T03:07:53.367Z,6.22
2019-05-23T03:10:23.669Z,6.22
2019-05-23T03:12:52.256Z,6.18
2019-05-23T03:15:21.126Z,6.19
2019-05-23T03:17:51.929Z,6.17
2019-05-23T03:20:19.831Z,6.13
2019-05-23T03:22:53.886Z,6.23
2019-05-23T03:26:03.196Z,6.24
2019-05-23T03:28:38.588Z,6.25
2019-05-23T03:31:28.754Z,6.20
2019-05-23T03:33:40.240Z,6.16
2019-05-23T03:36:07.788Z,6.19
2019-05-23T03:38:34.865Z,6.24
2019-05-23T03:41:03.818Z,6.19
2019-05-23T03:43:31.111Z,6.23
2019-05-23T03:46:02.606Z,6.20
2019-05-23T03:48:30.687Z,6.22
2019-05-23T03:50:58.943Z,6.27
2019-05-23T03:53:27.630Z,6.30
2019-05-23T03:55:56.866Z,6.31
2019-05-23T03:58:24.782Z,6.37
2019-05-23T04:00:54.076Z,6.38
2019-05-23T04:03:21.727Z,6.42
2019-05-23T04:05:48.891Z,6.45
2019-05-23T04:08:16.525Z,6.81
2019-05-23T04:10:43.600Z,6.86
2019-05-23T04:13:10.875Z,6.72
2019-05-23T04:15:37.634Z,6.69
2019-05-23T04:18:04.413Z,6.68
2019-05-23T04:20:32.528Z,6.72
2019-05-23T04:22:59.821Z,6.75
2019-05-23T04:25:26.583Z,6.74
2019-05-23T04:27:53.737Z,6.72
2019-05-23T04:30:20.841Z,6.77
2019-05-23T04:32:47.638Z,6.81
2019-05-23T04:35:15.094Z,6.97
2019-05-23T04:37:41.781Z,7.24
2019-05-23T04:40:10.552Z,7.45
2019-05-23T04:42:37.230Z,7.46
2019-05-23T04:45:05.428Z,7.32
2019-05-23T04:47:32.527Z,7.36
2019-05-23T04:49:59.985Z,7.56
2019-05-23T04:52:26.995Z,7.70
2019-05-23T04:54:53.647Z,7.86
2019-05-23T04:57:20.414Z,8.07
2019-05-23T04:59:47.623Z,8.26
2019-05-23T05:02:25.329Z,8.35
2019-05-23T05:04:44.027Z,8.45
2019-05-23T05:07:10.863Z,8.59
2019-05-23T05:09:37.983Z,8.77
2019-05-23T05:12:05.202Z,8.98
2019-05-23T05:14:32.425Z,9.29
2019-05-23T05:16:59.306Z,9.58
2019-05-23T05:19:26.427Z,9.94
2019-05-23T05:21:53.279Z,10.56
2019-05-23T05:24:20.360Z,11.20
2019-05-23T05:26:47.130Z,11.80
2019-05-23T05:29:14.032Z,12.45
2019-05-23T05:31:40.944Z,13.06
2019-05-23T05:34:07.631Z,13.54
2019-05-23T05:36:34.341Z,14.04
2019-05-23T05:39:01.139Z,14.63
2019-05-23T05:41:28.308Z,15.20
2019-05-23T05:43:54.983Z,15.88
2019-05-23T05:46:22.899Z,16.16
2019-05-23T05:48:49.843Z,16.12
2019-05-23T05:51:16.804Z,16.00
2019-05-23T05:53:44.035Z,15.98
2019-05-23T05:56:11.133Z,16.74
2019-05-23T05:58:37.892Z,17.00
2019-05-23T06:01:08.302Z,16.94
2019-05-23T06:03:35.374Z,17.55
2019-05-23T06:06:11.791Z,17.53
2019-05-23T06:08:39.977Z,17.83
2019-05-23T06:11:06.823Z,17.87
2019-05-23T06:13:33.979Z,18.54
2019-05-23T06:16:00.931Z,18.88
2019-05-23T06:18:27.627Z,18.99
2019-05-23T06:20:54.956Z,18.75
2019-05-23T06:23:22.503Z,19.17
2019-05-23T06:25:49.594Z,19.80
2019-05-23T06:28:17.863Z,20.68
2019-05-23T06:30:45.906Z,21.85
2019-05-23T06:33:22.693Z,22.98
2019-05-23T06:35:41.663Z,23.64
2019-05-23T06:38:08.431Z,24.18
2019-05-23T06:40:36.529Z,24.23
2019-05-23T06:43:03.762Z,24.59
2019-05-23T06:45:30.969Z,23.79
2019-05-23T06:47:57.749Z,23.35
2019-05-23T06:50:24.923Z,24.51
2019-05-23T06:52:51.823Z,25.38
2019-05-23T06:55:18.658Z,25.04
2019-05-23T06:57:45.401Z,25.74
2019-05-23T07:00:14.452Z,25.23
2019-05-23T07:02:42.043Z,26.15
2019-05-23T07:05:09.135Z,27.49
2019-05-23T07:07:36.750Z,27.57
2019-05-23T07:10:05.003Z,27.45
2019-05-23T07:12:32.149Z,28.17
2019-05-23T07:14:58.986Z,25.63
2019-05-23T07:17:26.643Z,25.90
2019-05-23T07:19:53.450Z,26.28
2019-05-23T07:22:21.146Z,27.76
2019-05-23T07:24:57.965Z,28.80
2019-05-23T07:27:18.108Z,27.75
2019-05-23T07:29:44.909Z,27.80
2019-05-23T07:32:11.788Z,28.10
2019-05-23T07:34:38.596Z,27.93
2019-05-23T07:37:05.275Z,26.88
2019-05-23T07:39:31.985Z,27.76
2019-05-23T07:41:58.567Z,28.45
2019-05-23T07:44:26.255Z,28.21
2019-05-23T07:46:53.520Z,28.48
2019-05-23T07:49:20.249Z,27.93
2019-05-23T07:51:46.932Z,27.21
2019-05-23T07:54:37.744Z,28.48
2019-05-23T07:57:07.721Z,30.49
2019-05-23T07:59:35.031Z,31.16
2019-05-23T08:02:14.166Z,31.53
2019-05-23T08:04:40.957Z,30.38
2019-05-23T08:07:09.440Z,32.23
2019-05-23T08:09:36.127Z,32.68
2019-05-23T08:12:03.351Z,34.21
2019-05-23T08:14:30.114Z,32.90
2019-05-23T08:16:56.996Z,31.86
2019-05-23T08:19:23.760Z,30.15
2019-05-23T08:21:50.541Z,28.51
2019-05-23T08:24:17.793Z,30.75
2019-05-23T08:26:46.980Z,29.18
2019-05-23T08:29:25.577Z,32.24
2019-05-23T08:31:42.669Z,34.30
2019-05-23T08:34:09.450Z,34.28
2019-05-23T08:36:36.231Z,34.28
2019-05-23T08:39:07.791Z,33.03
2019-05-23T08:41:34.564Z,34.19
2019-05-23T08:44:01.930Z,32.73
2019-05-23T08:46:29.106Z,34.17
2019-05-23T08:48:56.180Z,35.19
2019-05-23T08:51:22.877Z,35.39
2019-05-23T08:53:49.649Z,31.46
2019-05-23T08:56:19.479Z,34.34
2019-05-23T08:58:45.954Z,34.58
2019-05-23T09:01:12.743Z,34.84
2019-05-23T09:03:39.611Z,35.50
2019-05-23T09:06:08.198Z,35.21
2019-05-23T09:08:35.982Z,33.36
2019-05-23T09:11:02.811Z,34.18
2019-05-23T09:13:30.305Z,34.37
2019-05-23T09:15:56.997Z,32.71
2019-05-23T09:18:23.856Z,34.37
2019-05-23T09:20:50.520Z,33.65
2019-05-23T09:23:17.110Z,32.46
2019-05-23T09:25:43.996Z,34.71
2019-05-23T09:28:12.279Z,32.60
2019-05-23T09:30:39.061Z,32.01
2019-05-23T09:33:06.493Z,32.25
2019-05-23T09:35:33.859Z,31.58
2019-05-23T09:38:00.441Z,33.29
2019-05-23T09:40:27.214Z,32.08
2019-05-23T09:42:54.111Z,33.11
2019-05-23T09:45:20.918Z,32.99
2019-05-23T09:47:50.887Z,32.54
2019-05-23T09:50:19.660Z,33.54
2019-05-23T09:52:46.519Z,32.66
2019-05-23T09:55:13.486Z,34.15
2019-05-23T09:57:40.620Z,36.57
2019-05-23T10:00:10.186Z,37.50
2019-05-23T10:02:36.758Z,35.30
2019-05-23T10:05:05.668Z,31.16
2019-05-23T10:07:32.761Z,32.69
2019-05-23T10:09:59.455Z,34.31
2019-05-23T10:12:26.203Z,33.11
2019-05-23T10:14:52.951Z,31.79
2019-05-23T10:17:19.639Z,34.14
2019-05-23T10:19:46.435Z,34.19
2019-05-23T10:22:34.576Z,34.47
2019-05-23T10:25:01.369Z,35.13
2019-05-23T10:27:29.391Z,37.87
2019-05-23T10:29:56.150Z,38.06
2019-05-23T10:32:23.529Z,37.63
2019-05-23T10:34:50.293Z,33.22
2019-05-23T10:37:18.195Z,33.71
2019-05-23T10:39:50.602Z,34.65
2019-05-23T10:42:18.453Z,36.16
2019-05-23T10:44:45.333Z,39.49
2019-05-23T10:47:11.921Z,37.28
2019-05-23T10:49:41.080Z,35.63
2019-05-23T10:52:07.750Z,35.34
2019-05-23T10:54:34.536Z,34.79
2019-05-23T10:57:01.233Z,34.40
2019-05-23T10:59:27.901Z,36.86
2019-05-23T11:01:55.188Z,33.87
2019-05-23T11:04:21.825Z,33.04
2019-05-23T11:06:49.545Z,32.30
2019-05-23T11:09:16.421Z,32.12
2019-05-23T11:11:43.327Z,31.45
2019-05-23T11:14:10.405Z,31.78
2019-05-23T11:16:37.177Z,32.27
2019-05-23T11:19:04.768Z,30.60
2019-05-23T11:21:31.455Z,31.97
2019-05-23T11:23:59.506Z,33.47
2019-05-23T11:26:26.521Z,35.64
2019-05-23T11:28:53.400Z,35.95
2019-05-23T11:34:08.369Z,34.33
2019-05-23T11:36:36.715Z,36.63
2019-05-23T11:39:06.351Z,35.93
2019-05-23T11:41:33.547Z,30.90
2019-05-23T11:44:00.714Z,28.94
2019-05-23T11:46:30.180Z,28.66
2019-05-23T11:48:56.860Z,27.97
2019-05-23T11:51:25.622Z,27.28
2019-05-23T11:54:07.125Z,29.20
2019-05-23T11:56:21.553Z,33.42
2019-05-23T11:58:48.349Z,36.58
2019-05-23T12:01:40.628Z,34.97
2019-05-23T12:04:27.081Z,32.01
2019-05-23T12:06:58.273Z,29.96
2019-05-23T12:09:26.491Z,30.29
2019-05-23T12:11:53.379Z,31.18
2019-05-23T12:14:20.174Z,29.35
2019-05-23T12:16:47.876Z,30.66
2019-05-23T12:19:15.450Z,33.20
2019-05-23T12:21:42.168Z,33.64
2019-05-23T12:24:09.069Z,35.78
2019-05-23T12:26:35.859Z,36.17
2019-05-23T12:29:03.139Z,37.09
2019-05-23T12:31:29.712Z,39.42
2019-05-23T12:33:56.527Z,39.79
2019-05-23T12:36:23.684Z,39.80
2019-05-23T12:38:50.492Z,37.81
2019-05-23T12:41:19.468Z,37.89
2019-05-23T12:43:46.183Z,40.60
2019-05-23T12:46:13.021Z,39.41
2019-05-23T12:48:58.787Z,34.18
2019-05-23T12:51:29.823Z,37.21
2019-05-23T12:53:56.388Z,36.99
2019-05-23T12:56:24.338Z,33.50
2019-05-23T12:58:51.398Z,35.58
2019-05-23T13:01:39.186Z,33.83
2019-05-23T13:04:27.390Z,34.26
2019-05-23T13:06:58.267Z,31.19
2019-05-23T13:09:25.070Z,32.08
2019-05-23T13:11:52.044Z,31.61
2019-05-23T13:14:19.439Z,31.61
2019-05-23T13:16:46.531Z,31.80
2019-05-23T13:19:13.441Z,32.18
2019-05-23T13:21:40.279Z,31.49
2019-05-23T13:24:07.534Z,29.47
2019-05-23T13:26:34.308Z,30.02
2019-05-23T13:29:24.574Z,30.32
2019-05-23T13:31:51.117Z,31.38
2019-05-23T13:34:17.948Z,29.62
2019-05-23T13:36:45.040Z,28.92
2019-05-23T13:39:11.849Z,30.88
2019-05-23T13:41:38.633Z,32.30
2019-05-23T13:44:05.795Z,30.28
2019-05-23T13:46:32.997Z,29.23
2019-05-23T13:48:59.921Z,28.26
2019-05-23T13:51:26.736Z,29.94
2019-05-23T13:53:53.445Z,30.68
2019-05-23T13:56:20.310Z,30.96
2019-05-23T13:58:47.441Z,29.75
2019-05-23T14:01:14.261Z,27.19
2019-05-23T14:03:42.055Z,27.04
2019-05-23T14:06:08.882Z,26.69
2019-05-23T14:08:35.647Z,27.94
2019-05-23T14:11:02.648Z,28.51
2019-05-23T14:13:30.535Z,28.56
2019-05-23T14:15:57.508Z,27.76
2019-05-23T14:18:26.294Z,28.00
2019-05-23T14:20:53.190Z,28.49
2019-05-23T14:23:27.727Z,29.38
2019-05-23T14:25:54.825Z,29.64
2019-05-23T14:28:21.656Z,28.68
2019-05-23T14:31:10.944Z,29.51
2019-05-23T14:33:43.855Z,29.08
2019-05-23T14:36:18.718Z,28.36
2019-05-23T14:38:45.298Z,29.82
2019-05-23T14:41:12.169Z,28.90
2019-05-23T14:43:39.536Z,28.63
2019-05-23T14:46:08.873Z,29.13
2019-05-23T14:48:52.582Z,28.10
2019-05-23T14:51:32.359Z,28.00
2019-05-23T14:54:09.817Z,29.07
2019-05-23T14:56:37.131Z,31.05
2019-05-23T14:59:04.177Z,28.93
2019-05-23T15:01:32.889Z,28.00
2019-05-23T15:03:59.983Z,28.78
2019-05-23T15:06:27.592Z,28.32
2019-05-23T15:08:54.459Z,28.06
2019-05-23T15:11:21.297Z,28.47
2019-05-23T15:13:48.182Z,29.11
2019-05-23T15:16:16.012Z,28.99
2019-05-23T15:18:42.786Z,29.77
2019-05-23T15:21:09.579Z,29.62
2019-05-23T15:23:36.310Z,27.23
2019-05-23T15:26:21.535Z,25.64
2019-05-23T15:28:33.184Z,25.26
2019-05-23T15:30:59.879Z,25.47
2019-05-23T15:33:26.617Z,25.88
2019-05-23T15:35:53.346Z,25.23
2019-05-23T15:38:19.936Z,25.60
2019-05-23T15:40:46.750Z,25.42
2019-05-23T15:43:13.547Z,24.93
2019-05-23T15:45:40.389Z,24.60
2019-05-23T15:48:07.063Z,24.81
2019-05-23T15:50:39.858Z,25.07
2019-05-23T15:53:15.623Z,25.28
2019-05-23T15:56:26.121Z,24.25
2019-05-23T15:58:54.640Z,24.65
2019-05-23T16:01:30.631Z,24.10
2019-05-23T16:04:03.803Z,24.09
2019-05-23T16:06:32.531Z,24.10
2019-05-23T16:08:59.611Z,24.39
2019-05-23T16:11:26.608Z,24.79
2019-05-23T16:13:53.376Z,25.07
2019-05-23T16:16:20.294Z,25.56
2019-05-23T16:18:47.834Z,24.62
2019-05-23T16:21:15.037Z,24.53
2019-05-23T16:23:41.839Z,24.25
2019-05-23T16:26:11.631Z,23.88
2019-05-23T16:28:37.197Z,23.86
2019-05-23T16:31:04.014Z,23.74
2019-05-23T16:33:30.801Z,22.91
2019-05-23T16:35:57.650Z,22.85
2019-05-23T16:38:24.431Z,23.66
2019-05-23T16:40:51.223Z,23.69
2019-05-23T16:43:18.012Z,23.80
2019-05-23T16:45:44.978Z,23.44
2019-05-23T16:48:11.778Z,23.82
2019-05-23T16:50:38.591Z,24.12
2019-05-23T16:53:05.358Z,23.35
2019-05-23T16:55:57.382Z,23.39
2019-05-23T16:58:42.061Z,23.15
2019-05-23T17:01:28.562Z,23.53
2019-05-23T17:04:17.617Z,23.34
2019-05-23T17:06:50.754Z,23.25
2019-05-23T17:09:39.192Z,23.33
2019-05-23T17:12:27.528Z,23.43
2019-05-23T17:14:59.102Z,23.11
2019-05-23T17:18:02.468Z,23.15
2019-05-23T17:20:30.020Z,23.31
2019-05-23T17:23:05.707Z,23.63
2019-05-23T17:25:52.949Z,23.95
2019-05-23T17:28:26.654Z,24.03
2019-05-23T17:30:57.163Z,24.09
2019-05-23T17:33:23.665Z,24.08
2019-05-23T17:35:50.472Z,24.13
2019-05-23T17:38:17.303Z,24.21
2019-05-23T17:40:44.134Z,24.33
2019-05-23T17:43:11.434Z,24.08
2019-05-23T17:45:39.754Z,24.15
2019-05-23T17:48:06.612Z,23.90
2019-05-23T17:50:34.860Z,23.91
2019-05-23T17:53:02.021Z,23.75
2019-05-23T17:55:29.450Z,23.70
2019-05-23T17:57:57.013Z,23.66
2019-05-23T18:00:28.145Z,23.51
2019-05-23T18:02:54.943Z,23.38
2019-05-23T18:05:22.451Z,23.25
2019-05-23T18:07:49.233Z,23.12
2019-05-23T18:10:16.735Z,22.85
2019-05-23T18:12:43.624Z,22.48
2019-05-23T18:15:12.877Z,22.11
2019-05-23T18:17:39.573Z,21.76
2019-05-23T18:20:07.537Z,21.39
2019-05-23T18:22:36.437Z,21.21
2019-05-23T18:25:03.832Z,21.06
2019-05-23T18:27:31.335Z,20.69
2019-05-23T18:29:58.314Z,20.46
2019-05-23T18:32:27.689Z,20.32
2019-05-23T18:34:55.587Z,20.12
2019-05-23T18:37:22.580Z,19.91
2019-05-23T18:39:49.362Z,19.66
2019-05-23T18:42:16.978Z,19.40
2019-05-23T18:44:44.179Z,19.15
2019-05-23T18:47:17.549Z,18.92
2019-05-23T18:49:44.527Z,18.78
2019-05-23T18:52:11.430Z,18.61
2019-05-23T18:54:38.127Z,18.50
2019-05-23T18:57:04.922Z,18.42
2019-05-23T18:59:31.995Z,18.26
2019-05-23T19:01:58.798Z,18.12
2019-05-23T19:04:25.782Z,18.09
2019-05-23T19:06:53.090Z,17.91
2019-05-23T19:09:21.667Z,17.79
2019-05-23T19:11:48.470Z,17.61
2019-05-23T19:14:15.354Z,17.51
2019-05-23T19:16:42.160Z,17.39
2019-05-23T19:19:09.106Z,17.23
2019-05-23T19:21:36.081Z,17.18
2019-05-23T19:24:04.177Z,17.06
2019-05-23T19:26:30.982Z,16.93
2019-05-23T19:28:57.655Z,16.81
2019-05-23T19:31:25.488Z,16.79
2019-05-23T19:33:52.332Z,16.63
2019-05-23T19:36:19.325Z,16.51
2019-05-23T19:38:46.579Z,16.38
2019-05-23T19:41:13.392Z,16.42
2019-05-23T19:43:40.837Z,16.36
2019-05-23T19:46:07.624Z,16.26
2019-05-23T19:48:35.863Z,16.19
2019-05-23T19:51:02.871Z,16.14
2019-05-23T19:53:30.299Z,15.96
2019-05-23T19:55:57.338Z,15.93
2019-05-23T19:58:24.209Z,15.95
2019-05-23T20:00:51.079Z,15.82
2019-05-23T20:03:18.216Z,15.81
2019-05-23T20:05:45.490Z,15.77
2019-05-23T20:08:12.434Z,15.67
2019-05-23T20:10:39.973Z,15.70
2019-05-23T20:13:06.764Z,15.63
2019-05-23T20:15:33.759Z,15.66
2019-05-23T20:18:00.735Z,15.67
2019-05-23T20:20:27.734Z,15.56
2019-05-23T20:22:54.614Z,15.47
2019-05-23T20:25:21.738Z,15.48
2019-05-23T20:27:48.560Z,15.34
2019-05-23T20:30:59.675Z,15.32
2019-05-23T20:33:27.108Z,15.24
2019-05-23T20:35:54.281Z,15.18
2019-05-23T20:38:22.470Z,15.32
2019-05-23T20:40:49.147Z,15.21
2019-05-23T20:43:15.983Z,15.11
2019-05-23T20:45:42.793Z,15.10
2019-05-23T20:48:09.640Z,15.06
2019-05-23T20:50:36.409Z,14.98
2019-05-23T20:53:03.772Z,14.93
2019-05-23T20:55:30.578Z,14.84
2019-05-23T20:57:57.411Z,14.81
2019-05-23T21:00:36.327Z,14.80
2019-05-23T21:03:03.291Z,14.72
2019-05-23T21:05:31.489Z,14.69
2019-05-23T21:07:58.275Z,14.63
2019-05-23T21:10:44.998Z,14.52
2019-05-23T21:13:11.758Z,14.50
2019-05-23T21:15:40.840Z,14.37
2019-05-23T21:18:07.251Z,14.22
2019-05-23T21:20:34.061Z,14.12
2019-05-23T21:23:00.955Z,14.07
2019-05-23T21:25:28.292Z,13.97
2019-05-23T21:27:55.151Z,14.17
2019-05-23T21:30:21.855Z,14.13
2019-05-23T21:32:48.625Z,14.04
2019-05-23T21:35:15.260Z,13.95
2019-05-23T21:37:42.049Z,13.97
2019-05-23T21:40:13.435Z,13.96
2019-05-23T21:42:47.651Z,13.81
2019-05-23T21:45:08.955Z,13.78
2019-05-23T21:47:35.724Z,13.64
2019-05-23T21:50:02.875Z,13.50
2019-05-23T21:52:29.453Z,13.50
2019-05-23T21:54:56.246Z,13.40
2019-05-23T21:57:22.931Z,13.28
2019-05-23T21:59:49.687Z,13.19
2019-05-23T22:02:24.728Z,13.15
2019-05-23T22:04:56.485Z,13.07
2019-05-23T22:07:23.257Z,13.00
2019-05-23T22:09:50.054Z,12.96
2019-05-23T22:12:17.246Z,12.88
2019-05-23T22:14:45.135Z,12.81
2019-05-23T22:17:11.920Z,12.74
2019-05-23T22:19:38.618Z,12.71
2019-05-23T22:22:05.803Z,12.72
2019-05-23T22:24:32.603Z,12.66
2019-05-23T22:26:59.381Z,12.67
2019-05-23T22:29:26.173Z,12.63
2019-05-23T22:31:56.402Z,12.74
2019-05-23T22:34:37.271Z,12.90
2019-05-23T22:37:09.872Z,12.79
2019-05-23T22:39:36.558Z,12.69
2019-05-23T22:42:05.146Z,12.64
2019-05-23T22:44:31.944Z,12.58
2019-05-23T22:46:58.761Z,12.56
2019-05-23T22:49:25.440Z,12.54
2019-05-23T22:51:52.249Z,12.58
2019-05-23T22:54:19.055Z,12.49
2019-05-23T22:56:45.879Z,12.54
2019-05-23T22:59:12.652Z,12.64
2019-05-23T23:01:39.463Z,12.64
2019-05-23T23:04:06.682Z,12.67
2019-05-23T23:09:07.977Z,12.57
2019-05-23T23:11:34.867Z,12.38
2019-05-23T23:14:01.636Z,12.26
2019-05-23T23:16:28.334Z,12.26
2019-05-23T23:18:56.187Z,12.35
2019-05-23T23:21:22.874Z,12.21
2019-05-23T23:23:50.150Z,12.16
2019-05-23T23:26:16.940Z,12.08
2019-05-23T23:28:45.851Z,12.01
2019-05-23T23:31:12.866Z,11.86
2019-05-23T23:33:39.641Z,11.79
2019-05-23T23:36:06.320Z,11.80
2019-05-23T23:38:34.006Z,11.75
2019-05-23T23:41:00.685Z,11.73
2019-05-23T23:43:27.760Z,11.66
2019-05-23T23:46:12.551Z,11.64
2019-05-23T23:48:58.482Z,11.56
2019-05-23T23:51:43.254Z,11.72
2019-05-23T23:54:28.120Z,11.62
2019-05-23T23:57:13.465Z,11.44
2019-05-23T23:59:39.916Z,11.31
